Time;durP1;ratioP1;P1;durP2;ratioP2;P2;SDS_P1;SDS_P2;PMS_P1;PMS_P2;Temp;Humidity;BMP_temperature;BMP_pressure;BME280_temperature;BME280_humidity;BME280_pressure;Samples;Min_cycle;Max_cycle;Signal;HPM_P1;HPM_P2
2023/04/22 00:01:23;;;;;;;7.70;6.85;;;11.50;99.90;;;;;;5047171;28;20421;-74
2023/04/22 00:03:49;;;;;;;7.25;6.55;;;11.30;99.90;;;;;;5052049;28;20476;-73
2023/04/22 00:06:16;;;;;;;8.57;7.78;;;11.30;99.90;;;;;;5056276;28;20918;-74
2023/04/22 00:08:42;;;;;;;7.90;7.20;;;11.30;99.90;;;;;;5052149;28;20426;-74
2023/04/22 00:11:07;;;;;;;8.47;7.60;;;11.30;99.90;;;;;;5028436;28;20480;-74
2023/04/22 00:13:33;;;;;;;8.60;7.70;;;11.30;99.90;;;;;;5060927;28;20923;-74
2023/04/22 00:15:59;;;;;;;8.90;7.45;;;11.40;99.90;;;;;;5048789;28;21051;-75
2023/04/22 00:18:24;;;;;;;9.88;8.32;;;11.20;99.90;;;;;;5066312;28;20886;-74
2023/04/22 00:20:50;;;;;;;7.82;7.13;;;11.00;99.90;;;;;;5062571;28;20405;-75
2023/04/22 00:23:16;;;;;;;9.23;7.93;;;11.00;99.90;;;;;;5045349;28;20420;-74
2023/04/22 00:25:42;;;;;;;10.25;9.25;;;10.80;99.90;;;;;;5050047;28;20435;-74
2023/04/22 00:28:07;;;;;;;11.83;10.63;;;10.80;99.90;;;;;;5065371;28;20907;-74
2023/04/22 00:30:34;;;;;;;15.90;14.23;;;10.70;99.90;;;;;;5054898;28;20460;-74
2023/04/22 00:33:00;;;;;;;17.67;15.85;;;10.60;99.90;;;;;;5046517;28;20441;-74
2023/04/22 00:35:26;;;;;;;15.00;13.50;;;10.60;99.90;;;;;;5057241;28;20544;-74
2023/04/22 00:37:51;;;;;;;15.18;13.65;;;10.70;99.90;;;;;;5046416;28;20850;-74
2023/04/22 00:40:17;;;;;;;13.35;10.82;;;10.80;99.90;;;;;;5048153;28;20921;-73
2023/04/22 00:42:43;;;;;;;11.52;10.45;;;10.60;99.90;;;;;;5047737;28;20425;-73
2023/04/22 00:45:10;;;;;;;10.23;9.27;;;10.60;99.90;;;;;;5052691;28;20429;-73
2023/04/22 00:47:36;;;;;;;9.35;8.50;;;10.30;99.90;;;;;;5048751;28;20425;-73
2023/04/22 00:50:03;;;;;;;10.57;9.32;;;10.20;99.90;;;;;;5050229;28;20429;-73
2023/04/22 00:52:29;;;;;;;10.98;9.00;;;10.20;99.90;;;;;;5050883;28;20429;-74
2023/04/22 00:54:55;;;;;;;9.82;8.80;;;10.20;99.90;;;;;;5056538;28;20425;-74
2023/04/22 00:57:21;;;;;;;10.90;8.95;;;10.10;99.90;;;;;;5048979;28;20425;-73
2023/04/22 00:59:48;;;;;;;9.13;8.23;;;10.20;99.90;;;;;;5054149;28;20511;-73
2023/04/22 01:02:14;;;;;;;10.40;8.63;;;10.00;99.90;;;;;;5061312;28;20761;-73
2023/04/22 01:04:40;;;;;;;10.60;9.55;;;9.90;99.90;;;;;;5053935;28;20508;-74
2023/04/22 01:07:06;;;;;;;12.93;11.63;;;9.90;99.90;;;;;;5049780;28;20471;-74
2023/04/22 01:09:32;;;;;;;12.90;11.50;;;9.80;99.90;;;;;;5054200;28;20427;-74
2023/04/22 01:11:58;;;;;;;13.45;12.05;;;9.90;99.90;;;;;;5067281;28;20484;-75
2023/04/22 01:14:24;;;;;;;13.68;12.45;;;9.90;99.90;;;;;;5061414;28;20836;-74
2023/04/22 01:16:52;;;;;;;14.00;11.23;;;10.00;99.90;;;;;;5049980;28;20500;-74
2023/04/22 01:19:18;;;;;;;12.52;11.32;;;9.90;99.90;;;;;;5051598;28;20439;-75
2023/04/22 01:21:45;;;;;;;10.82;9.82;;;9.80;99.90;;;;;;5059615;28;20417;-75
2023/04/22 01:24:11;;;;;;;14.07;12.77;;;9.90;99.90;;;;;;5048815;28;20471;-76
2023/04/22 01:26:37;;;;;;;15.15;13.60;;;9.70;99.90;;;;;;5060391;28;20451;-75
2023/04/22 01:29:04;;;;;;;11.88;10.65;;;9.70;99.90;;;;;;5053228;28;20455;-76
2023/04/22 01:31:30;;;;;;;9.52;8.63;;;9.60;99.90;;;;;;5071052;28;20768;-73
2023/04/22 01:33:56;;;;;;;8.85;8.05;;;9.70;99.90;;;;;;5048690;28;20781;-73
2023/04/22 01:36:22;;;;;;;9.65;8.40;;;9.60;99.90;;;;;;5049381;28;20427;-75
2023/04/22 01:38:48;;;;;;;9.67;8.77;;;9.60;99.90;;;;;;5050318;28;20553;-75
2023/04/22 01:41:14;;;;;;;8.93;8.07;;;9.60;99.90;;;;;;5050324;28;20421;-75
2023/04/22 01:43:41;;;;;;;8.63;7.77;;;9.50;99.90;;;;;;5053619;28;20427;-75
2023/04/22 01:46:07;;;;;;;9.32;8.43;;;9.60;99.90;;;;;;5031847;28;20432;-74
2023/04/22 01:48:34;;;;;;;9.37;8.53;;;9.60;99.90;;;;;;5066193;28;20597;-75
2023/04/22 01:51:00;;;;;;;9.00;8.10;;;9.50;99.90;;;;;;5064707;28;20439;-75
2023/04/22 01:53:26;;;;;;;10.23;8.97;;;9.50;99.90;;;;;;5046337;28;20417;-75
2023/04/22 01:55:52;;;;;;;9.73;8.82;;;9.50;99.90;;;;;;5062125;28;20445;-75
2023/04/22 01:58:17;;;;;;;9.23;8.32;;;9.50;99.90;;;;;;5062973;28;20937;-75
2023/04/22 02:00:43;;;;;;;11.02;9.85;;;9.40;99.90;;;;;;5059751;28;20419;-75
2023/04/22 02:03:09;;;;;;;11.07;9.98;;;9.50;99.90;;;;;;5050550;28;20834;-75
2023/04/22 02:05:36;;;;;;;10.23;9.23;;;9.50;99.90;;;;;;5066944;28;20693;-73
2023/04/22 02:08:02;;;;;;;10.80;9.77;;;9.50;99.90;;;;;;5067496;28;20407;-73
2023/04/22 02:10:27;;;;;;;11.30;10.15;;;9.50;99.90;;;;;;5053079;28;20434;-74
2023/04/22 02:12:53;;;;;;;10.02;9.02;;;9.60;99.90;;;;;;5047582;28;20444;-76
2023/04/22 02:15:19;;;;;;;10.50;9.60;;;9.30;99.90;;;;;;5053078;28;20428;-73
2023/04/22 02:17:45;;;;;;;10.77;9.73;;;9.40;99.90;;;;;;5062611;28;20413;-75
2023/04/22 02:20:11;;;;;;;10.97;9.90;;;9.50;99.90;;;;;;5052680;28;20408;-73
2023/04/22 02:22:37;;;;;;;10.70;9.73;;;9.20;99.90;;;;;;5058330;28;20473;-75
2023/04/22 02:25:04;;;;;;;11.93;10.73;;;9.30;99.90;;;;;;5046109;28;20508;-75
2023/04/22 02:27:29;;;;;;;11.33;10.23;;;9.20;99.90;;;;;;5046442;28;20448;-75
2023/04/22 02:29:55;;;;;;;11.83;10.77;;;9.10;99.90;;;;;;5049029;28;20975;-75
2023/04/22 02:32:21;;;;;;;12.80;10.97;;;9.10;99.90;;;;;;5046753;28;20425;-75
2023/04/22 02:34:47;;;;;;;11.57;10.48;;;9.20;99.90;;;;;;5047468;28;20421;-73
2023/04/22 02:37:13;;;;;;;11.93;10.77;;;9.40;99.90;;;;;;5047913;28;20504;-75
2023/04/22 02:39:38;;;;;;;13.40;12.00;;;9.30;99.90;;;;;;5047139;28;20846;-75
2023/04/22 02:42:04;;;;;;;11.63;10.53;;;9.40;99.90;;;;;;5043639;28;20409;-75
2023/04/22 02:44:29;;;;;;;12.35;11.15;;;9.30;99.90;;;;;;5048172;28;20413;-75
2023/04/22 02:46:55;;;;;;;9.20;8.30;;;9.30;99.90;;;;;;5047781;28;20444;-75
2023/04/22 02:49:21;;;;;;;10.88;9.77;;;9.40;99.90;;;;;;5044122;28;20489;-75
2023/04/22 02:51:46;;;;;;;10.90;9.80;;;9.30;99.90;;;;;;5044174;28;20789;-74
2023/04/22 02:54:12;;;;;;;11.03;9.97;;;9.40;99.90;;;;;;5046255;28;20420;-74
2023/04/22 02:56:37;;;;;;;9.00;8.20;;;9.30;99.90;;;;;;5048903;28;20460;-75
2023/04/22 02:59:03;;;;;;;9.87;8.97;;;9.40;99.90;;;;;;5048625;28;20901;-74
2023/04/22 03:01:29;;;;;;;11.18;10.18;;;9.30;99.90;;;;;;5056281;28;20494;-75
2023/04/22 03:03:55;;;;;;;12.25;11.07;;;9.30;99.90;;;;;;5049565;28;20429;-75
2023/04/22 03:06:21;;;;;;;11.40;10.30;;;9.20;99.90;;;;;;5048114;28;20521;-75
2023/04/22 03:08:47;;;;;;;8.93;8.10;;;9.20;99.90;;;;;;5045319;28;20517;-74
2023/04/22 03:11:12;;;;;;;10.60;9.53;;;9.20;99.90;;;;;;5054511;28;20419;-74
2023/04/22 03:13:38;;;;;;;8.77;7.87;;;9.20;99.90;;;;;;5047308;28;20417;-73
2023/04/22 03:16:04;;;;;;;9.10;8.30;;;9.30;99.90;;;;;;5050828;28;20525;-74
2023/04/22 03:18:30;;;;;;;10.30;9.30;;;9.10;99.90;;;;;;5045384;28;20464;-74
2023/04/22 03:20:55;;;;;;;10.97;9.87;;;9.10;99.90;;;;;;5046569;28;20793;-73
2023/04/22 03:23:21;;;;;;;9.93;8.93;;;9.10;99.90;;;;;;5048681;28;20420;-74
2023/04/22 03:25:47;;;;;;;10.53;9.43;;;9.00;99.90;;;;;;5049631;28;20895;-74
2023/04/22 03:28:12;;;;;;;10.30;9.25;;;9.00;99.90;;;;;;5047086;28;20515;-75
2023/04/22 03:30:38;;;;;;;10.65;9.63;;;9.00;99.90;;;;;;5046555;28;20425;-74
2023/04/22 03:33:04;;;;;;;11.02;9.85;;;9.00;99.90;;;;;;5047411;28;20424;-75
2023/04/22 03:35:30;;;;;;;12.05;10.93;;;9.00;99.90;;;;;;5048282;28;20912;-74
2023/04/22 03:37:55;;;;;;;10.77;9.75;;;8.80;99.90;;;;;;5064077;28;20424;-75
2023/04/22 03:40:21;;;;;;;11.07;10.07;;;8.80;99.90;;;;;;5047767;28;20453;-73
2023/04/22 03:42:47;;;;;;;9.68;8.68;;;8.80;99.90;;;;;;5053578;28;20828;-75
2023/04/22 03:45:12;;;;;;;10.40;9.50;;;8.80;99.90;;;;;;5047278;28;20401;-73
2023/04/22 03:47:38;;;;;;;9.97;9.07;;;8.90;99.90;;;;;;5044625;28;20407;-74
2023/04/22 03:50:04;;;;;;;10.13;8.90;;;8.70;99.90;;;;;;5040061;28;20858;-74
2023/04/22 03:52:30;;;;;;;10.27;9.32;;;8.60;99.90;;;;;;5051256;28;20500;-72
2023/04/22 03:54:55;;;;;;;11.25;10.20;;;8.50;99.90;;;;;;5050204;28;20476;-72
2023/04/22 03:57:21;;;;;;;10.85;9.68;;;8.30;99.90;;;;;;5038622;28;20934;-72
2023/04/22 03:59:47;;;;;;;9.80;8.90;;;8.30;99.90;;;;;;5043983;28;20477;-73
2023/04/22 04:02:12;;;;;;;9.67;8.73;;;8.40;99.90;;;;;;5057657;28;20417;-72
2023/04/22 04:04:38;;;;;;;10.27;9.27;;;8.40;99.90;;;;;;5049411;28;20492;-73
2023/04/22 04:07:04;;;;;;;11.43;10.33;;;8.50;99.90;;;;;;5047510;28;20420;-73
2023/04/22 04:09:29;;;;;;;10.70;9.80;;;8.40;99.90;;;;;;5047449;28;20444;-73
2023/04/22 04:11:55;;;;;;;12.80;11.63;;;8.60;99.90;;;;;;5046332;28;20747;-73
2023/04/22 04:14:21;;;;;;;11.50;10.43;;;8.60;99.90;;;;;;5046440;28;20425;-73
2023/04/22 04:16:47;;;;;;;10.93;9.90;;;8.60;99.90;;;;;;5050766;28;20548;-73
2023/04/22 04:19:12;;;;;;;10.23;9.23;;;8.50;99.90;;;;;;5039078;28;20502;-73
2023/04/22 04:21:38;;;;;;;15.00;10.27;;;8.10;99.90;;;;;;5048595;28;20496;-73
2023/04/22 04:24:05;;;;;;;11.20;10.10;;;8.00;99.90;;;;;;5057074;28;20437;-74
2023/04/22 04:26:32;;;;;;;12.32;11.13;;;7.90;99.90;;;;;;5044343;28;20409;-74
2023/04/22 04:29:00;;;;;;;13.55;12.13;;;7.90;99.90;;;;;;5032486;28;20433;-76
2023/04/22 04:31:27;;;;;;;12.50;11.38;;;7.90;99.90;;;;;;5045198;28;20460;-74
2023/04/22 04:33:52;;;;;;;13.40;12.02;;;7.90;99.90;;;;;;5059253;28;20449;-75
2023/04/22 04:36:18;;;;;;;15.50;13.90;;;8.10;99.90;;;;;;5045389;28;20841;-74
2023/04/22 04:38:45;;;;;;;16.98;15.07;;;8.20;99.90;;;;;;5043886;28;20505;-74
2023/04/22 04:41:11;;;;;;;16.17;14.48;;;8.30;99.90;;;;;;5047752;28;20433;-73
2023/04/22 04:43:37;;;;;;;16.37;14.77;;;8.50;99.90;;;;;;5046228;28;20429;-73
2023/04/22 04:46:03;;;;;;;15.87;14.40;;;8.70;99.90;;;;;;5045398;28;20425;-74
2023/04/22 04:48:28;;;;;;;16.47;14.93;;;8.90;99.90;;;;;;5045670;28;21252;-74
2023/04/22 04:50:55;;;;;;;15.83;14.40;;;8.80;99.90;;;;;;5048307;28;20431;-74
2023/04/22 04:53:21;;;;;;;15.63;14.13;;;9.10;99.90;;;;;;5062988;28;20424;-73
2023/04/22 04:55:47;;;;;;;16.20;14.60;;;9.70;99.90;;;;;;5046090;28;20429;-75
2023/04/22 04:58:13;;;;;;;14.13;12.82;;;9.90;99.90;;;;;;5046473;28;20494;-75
2023/04/22 05:00:39;;;;;;;15.43;13.65;;;9.60;99.90;;;;;;5045197;28;20923;-74
2023/04/22 05:03:04;;;;;;;13.98;12.68;;;9.80;99.90;;;;;;5046213;28;20425;-75
2023/04/22 05:05:30;;;;;;;13.63;12.23;;;9.50;99.90;;;;;;5046334;28;20482;-75
2023/04/22 05:07:56;;;;;;;13.63;12.32;;;9.70;99.90;;;;;;5045934;28;20454;-74
2023/04/22 05:10:22;;;;;;;13.73;12.50;;;10.30;99.90;;;;;;5045170;28;20801;-73
2023/04/22 05:12:47;;;;;;;15.20;13.70;;;10.00;99.90;;;;;;5052236;28;20417;-74
2023/04/22 05:15:14;;;;;;;14.33;12.93;;;9.70;99.90;;;;;;5045008;28;20436;-75
2023/04/22 05:17:39;;;;;;;15.07;13.63;;;9.70;99.90;;;;;;5047841;28;20493;-75
2023/04/22 05:20:06;;;;;;;15.68;14.18;;;9.60;99.90;;;;;;5043499;28;20421;-74
2023/04/22 05:22:31;;;;;;;15.37;13.97;;;9.50;99.90;;;;;;5040916;28;20512;-74
2023/04/22 05:24:57;;;;;;;15.47;13.97;;;9.50;99.90;;;;;;5045017;28;20539;-75
2023/04/22 05:27:23;;;;;;;15.03;13.73;;;9.20;99.90;;;;;;5044951;28;20790;-75
2023/04/22 05:29:48;;;;;;;15.93;14.43;;;9.20;99.90;;;;;;5054719;28;20519;-73
2023/04/22 05:32:14;;;;;;;16.63;15.03;;;9.00;99.90;;;;;;5064386;28;20451;-73
2023/04/22 05:34:40;;;;;;;16.75;15.15;;;9.10;99.90;;;;;;5049541;28;20485;-74
2023/04/22 05:37:07;;;;;;;17.48;15.88;;;9.20;99.90;;;;;;5069114;28;21126;-74
2023/04/22 05:39:32;;;;;;;17.40;15.80;;;9.10;99.90;;;;;;5053140;28;20464;-74
2023/04/22 05:41:58;;;;;;;17.80;16.13;;;9.10;99.90;;;;;;5057190;28;20461;-75
2023/04/22 05:44:24;;;;;;;18.73;16.98;;;9.00;99.90;;;;;;5060277;28;20858;-74
2023/04/22 05:46:49;;;;;;;18.67;16.88;;;9.10;99.90;;;;;;5054002;28;20496;-73
2023/04/22 05:49:15;;;;;;;17.85;16.08;;;9.20;99.90;;;;;;5056868;28;20430;-72
2023/04/22 05:51:41;;;;;;;17.93;15.90;;;9.30;99.90;;;;;;5054019;28;20413;-73
2023/04/22 05:54:07;;;;;;;20.88;16.23;;;9.20;99.90;;;;;;5046188;28;20427;-74
2023/04/22 05:56:32;;;;;;;17.75;15.95;;;9.30;99.90;;;;;;5048314;28;20498;-74
2023/04/22 05:58:58;;;;;;;19.08;17.30;;;9.30;99.90;;;;;;5050089;28;20424;-75
2023/04/22 06:01:24;;;;;;;19.00;17.10;;;9.30;99.90;;;;;;5046021;28;20427;-74
2023/04/22 06:03:50;;;;;;;20.67;18.87;;;9.20;99.90;;;;;;5035636;28;20435;-74
2023/04/22 06:06:16;;;;;;;21.25;19.30;;;9.30;99.90;;;;;;5049425;28;20421;-74
2023/04/22 06:08:41;;;;;;;20.63;18.83;;;9.30;99.90;;;;;;5047361;28;20483;-74
2023/04/22 06:11:07;;;;;;;20.30;18.52;;;9.30;99.90;;;;;;5048690;28;21004;-74
2023/04/22 06:13:33;;;;;;;18.38;16.58;;;9.50;99.90;;;;;;5049846;28;20422;-74
2023/04/22 06:16:00;;;;;;;17.88;16.13;;;9.50;99.90;;;;;;5049969;28;20410;-75
2023/04/22 06:18:25;;;;;;;18.90;16.98;;;9.70;99.90;;;;;;5043175;28;20444;-74
2023/04/22 06:20:51;;;;;;;17.08;15.55;;;10.00;99.90;;;;;;5049105;28;20413;-74
2023/04/22 06:23:17;;;;;;;18.70;16.77;;;10.10;99.90;;;;;;5046586;28;20980;-74
2023/04/22 06:25:43;;;;;;;17.02;15.32;;;10.40;99.90;;;;;;5049940;28;20410;-75
2023/04/22 06:28:08;;;;;;;15.75;14.18;;;10.30;99.90;;;;;;5057883;28;20432;-76
2023/04/22 06:30:34;;;;;;;15.93;14.43;;;10.20;99.90;;;;;;5066695;28;20468;-75
2023/04/22 06:33:00;;;;;;;17.35;15.75;;;10.30;99.90;;;;;;5061852;28;20456;-76
2023/04/22 06:35:26;;;;;;;17.15;15.55;;;10.40;99.90;;;;;;5059732;28;20518;-71
2023/04/22 06:37:51;;;;;;;17.48;15.80;;;10.40;99.90;;;;;;5064923;28;20749;-75
2023/04/22 06:40:17;;;;;;;18.13;16.23;;;10.50;99.90;;;;;;5064979;28;20427;-72
2023/04/22 06:42:43;;;;;;;15.93;14.47;;;10.60;99.90;;;;;;5070298;28;20403;-75
2023/04/22 06:45:11;;;;;;;18.13;16.33;;;10.70;99.90;;;;;;5047860;28;20461;-74
2023/04/22 06:47:38;;;;;;;20.17;18.00;;;10.60;99.90;;;;;;5046283;28;20447;-74
2023/04/22 06:50:08;;;;;;;20.63;18.60;;;10.80;99.90;;;;;;5050701;28;20514;-74
2023/04/22 06:52:34;;;;;;;20.57;18.50;;;10.80;99.90;;;;;;5028042;28;20407;-75
2023/04/22 06:55:02;;;;;;;20.20;18.35;;;11.00;99.90;;;;;;5047469;28;20811;-73
2023/04/22 06:57:28;;;;;;;21.23;19.30;;;11.10;99.90;;;;;;5042085;28;20444;-75
2023/04/22 06:59:53;;;;;;;21.83;19.63;;;11.20;99.90;;;;;;5058408;28;20870;-74
2023/04/22 07:02:20;;;;;;;20.10;18.07;;;11.40;99.90;;;;;;5053972;28;20510;-74
2023/04/22 07:04:45;;;;;;;20.48;18.40;;;11.20;99.90;;;;;;5047306;28;20465;-73
2023/04/22 07:07:11;;;;;;;20.63;18.52;;;11.30;99.90;;;;;;5047143;28;20468;-74
2023/04/22 07:09:37;;;;;;;17.73;15.93;;;11.10;99.90;;;;;;5051171;28;21019;-74
2023/04/22 07:12:03;;;;;;;17.38;15.68;;;11.10;99.90;;;;;;5048265;28;21017;-74
2023/04/22 07:14:29;;;;;;;18.13;16.33;;;11.40;99.90;;;;;;5059972;28;20424;-74
2023/04/22 07:16:54;;;;;;;15.93;14.43;;;11.10;99.90;;;;;;5057307;28;20428;-74
2023/04/22 07:19:20;;;;;;;18.17;16.38;;;11.00;99.90;;;;;;5054751;28;20489;-75
2023/04/22 07:21:46;;;;;;;17.40;15.80;;;11.50;99.90;;;;;;5062195;28;20893;-73
2023/04/22 07:24:12;;;;;;;17.23;15.52;;;11.60;99.90;;;;;;5055415;28;20441;-75
2023/04/22 07:26:39;;;;;;;17.03;15.23;;;11.70;99.90;;;;;;5048656;28;20429;-75
2023/04/22 07:29:05;;;;;;;16.60;15.18;;;11.80;99.90;;;;;;5048840;28;20439;-73
2023/04/22 07:31:32;;;;;;;17.70;16.13;;;11.90;99.90;;;;;;5063640;28;20409;-73
2023/04/22 07:33:58;;;;;;;16.23;14.80;;;12.00;99.90;;;;;;5046462;28;20524;-76
2023/04/22 07:36:23;;;;;;;15.63;14.27;;;11.70;99.90;;;;;;5046364;28;20780;-75
2023/04/22 07:38:49;;;;;;;16.13;13.70;;;11.80;99.90;;;;;;5053659;28;20430;-73
2023/04/22 07:41:15;;;;;;;16.17;14.60;;;12.00;99.90;;;;;;5047351;28;20519;-73
2023/04/22 07:43:40;;;;;;;15.48;14.07;;;12.30;99.90;;;;;;5045738;28;20754;-75
2023/04/22 07:46:06;;;;;;;15.60;14.15;;;12.10;99.90;;;;;;5046597;28;20535;-74
2023/04/22 07:48:32;;;;;;;15.10;13.60;;;12.10;99.90;;;;;;5047240;28;20421;-74
2023/04/22 07:50:57;;;;;;;15.17;13.87;;;12.60;99.90;;;;;;5058322;28;20526;-74
2023/04/22 07:53:23;;;;;;;14.47;13.23;;;12.60;99.90;;;;;;5047367;28;20412;-74
2023/04/22 07:55:49;;;;;;;14.60;13.23;;;12.60;99.90;;;;;;5048924;28;20829;-75
2023/04/22 07:58:15;;;;;;;13.60;12.30;;;12.90;99.90;;;;;;5046114;28;20780;-75
2023/04/22 08:00:41;;;;;;;13.38;12.18;;;13.10;99.90;;;;;;5049067;28;20929;-76
2023/04/22 08:03:07;;;;;;;13.77;12.40;;;12.90;99.90;;;;;;5048696;28;20504;-73
2023/04/22 08:05:32;;;;;;;12.47;11.47;;;13.10;99.90;;;;;;5049536;28;20429;-75
2023/04/22 08:07:58;;;;;;;14.32;12.93;;;13.40;99.90;;;;;;5052830;28;20937;-77
2023/04/22 08:10:24;;;;;;;13.52;12.32;;;13.40;99.90;;;;;;5053365;28;20420;-76
2023/04/22 08:12:50;;;;;;;14.20;12.95;;;13.50;99.90;;;;;;5050183;28;20577;-75
2023/04/22 08:15:15;;;;;;;13.80;12.52;;;13.90;99.90;;;;;;5048147;28;20445;-75
2023/04/22 08:17:41;;;;;;;13.82;12.52;;;14.00;99.90;;;;;;5053642;28;20440;-75
2023/04/22 08:20:08;;;;;;;13.88;12.60;;;13.90;99.90;;;;;;5048371;28;20420;-75
2023/04/22 08:22:34;;;;;;;16.20;14.05;;;14.30;99.90;;;;;;5048086;28;20421;-74
2023/04/22 08:25:00;;;;;;;14.63;13.13;;;14.20;99.90;;;;;;5046231;28;20409;-76
2023/04/22 08:27:26;;;;;;;13.73;12.30;;;14.00;99.90;;;;;;5063244;28;20401;-76
2023/04/22 08:29:51;;;;;;;14.77;13.30;;;14.10;99.90;;;;;;5046874;28;20793;-75
2023/04/22 08:32:18;;;;;;;15.33;13.93;;;14.30;99.90;;;;;;5045721;28;21020;-75
2023/04/22 08:34:45;;;;;;;15.47;14.07;;;14.50;99.90;;;;;;5042819;28;20880;-74
2023/04/22 08:37:11;;;;;;;14.55;13.05;;;14.60;99.90;;;;;;5052666;28;20417;-74
2023/04/22 08:39:36;;;;;;;15.48;13.50;;;14.80;99.90;;;;;;5050466;28;20925;-73
2023/04/22 08:42:02;;;;;;;15.25;13.80;;;15.10;99.90;;;;;;5051986;28;20484;-74
2023/04/22 08:44:28;;;;;;;13.98;12.68;;;15.00;99.90;;;;;;5048316;28;20436;-75
2023/04/22 08:46:55;;;;;;;13.98;12.77;;;15.10;99.90;;;;;;5049467;28;20420;-75
2023/04/22 08:49:22;;;;;;;13.90;12.65;;;14.80;99.90;;;;;;5036295;28;20468;-74
2023/04/22 08:51:49;;;;;;;14.60;13.18;;;14.80;99.90;;;;;;5051673;28;20509;-74
2023/04/22 08:54:15;;;;;;;14.90;13.50;;;15.00;99.90;;;;;;5047247;28;20420;-74
2023/04/22 08:56:43;;;;;;;15.48;13.98;;;15.00;99.90;;;;;;5047802;28;20433;-75
2023/04/22 08:59:10;;;;;;;13.90;12.70;;;14.70;99.90;;;;;;5045360;28;21111;-74
2023/04/22 09:01:38;;;;;;;14.98;13.57;;;14.80;99.90;;;;;;5045685;28;20413;-74
2023/04/22 09:04:05;;;;;;;14.52;13.23;;;15.00;99.90;;;;;;5052343;28;20953;-74
2023/04/22 09:06:32;;;;;;;14.35;13.05;;;15.20;99.90;;;;;;5044744;28;20816;-76
2023/04/22 09:09:00;;;;;;;14.57;13.18;;;15.50;99.90;;;;;;5048971;28;20433;-74
2023/04/22 09:11:27;;;;;;;13.55;12.25;;;15.40;99.90;;;;;;5055016;28;20427;-73
2023/04/22 09:13:53;;;;;;;13.88;12.63;;;15.40;99.90;;;;;;5063914;28;20549;-73
2023/04/22 09:16:19;;;;;;;14.13;12.82;;;15.20;99.90;;;;;;5047197;28;20508;-73
2023/04/22 09:18:45;;;;;;;13.90;12.47;;;15.60;99.90;;;;;;5062492;28;20620;-73
2023/04/22 09:21:11;;;;;;;15.65;14.05;;;15.70;99.90;;;;;;5067472;28;20399;-73
2023/04/22 09:23:51;;;;;;;14.82;13.55;;;15.70;99.90;;;;;;5051723;28;20492;-73
2023/04/22 09:26:24;;;;;;;14.25;12.75;;;15.40;99.90;;;;;;5066600;28;20925;-74
2023/04/22 09:28:57;;;;;;;14.38;12.82;;;15.40;99.90;;;;;;5049615;28;20417;-73
2023/04/22 09:31:23;;;;;;;14.25;12.95;;;15.80;99.90;;;;;;5050614;28;20421;-73
2023/04/22 09:33:56;;;;;;;14.27;12.88;;;15.60;99.90;;;;;;5049913;28;20421;-73
2023/04/22 09:36:26;;;;;;;14.05;12.82;;;16.20;99.90;;;;;;5046233;28;20487;-73
2023/04/22 09:38:57;;;;;;;13.80;12.60;;;16.00;99.90;;;;;;5061488;28;20751;-74
2023/04/22 09:41:52;;;;;;;14.55;13.15;;;16.30;99.90;;;;;;5049651;28;20417;-74
2023/04/22 09:44:18;;;;;;;14.73;13.23;;;16.10;99.90;;;;;;5054441;28;20421;-74
2023/04/22 09:46:44;;;;;;;12.70;11.60;;;16.40;99.90;;;;;;5043420;28;20433;-74
2023/04/22 09:49:10;;;;;;;13.90;12.57;;;16.50;99.90;;;;;;5044899;28;20417;-74
2023/04/22 09:51:39;;;;;;;12.70;11.60;;;16.40;99.90;;;;;;5046771;28;20990;-75
2023/04/22 09:54:10;;;;;;;12.13;10.93;;;16.60;99.90;;;;;;5047698;28;20409;-71
2023/04/22 09:56:53;;;;;;;12.40;11.20;;;16.80;99.90;;;;;;5049853;28;20615;-70
2023/04/22 09:59:27;;;;;;;12.98;11.68;;;16.60;99.90;;;;;;5054583;28;20430;-75
2023/04/22 10:01:56;;;;;;;12.40;11.20;;;16.60;99.90;;;;;;5038570;28;20415;-73
2023/04/22 10:04:24;;;;;;;12.85;11.63;;;16.60;99.90;;;;;;5049462;28;20419;-73
2023/04/22 10:06:51;;;;;;;13.13;11.98;;;17.10;99.90;;;;;;5045465;28;20437;-74
2023/04/22 10:09:19;;;;;;;12.85;11.30;;;17.00;99.90;;;;;;5049653;28;20476;-74
2023/04/22 10:11:46;;;;;;;14.48;11.82;;;17.10;99.90;;;;;;5043743;28;20905;-74
2023/04/22 10:14:13;;;;;;;11.60;10.57;;;16.70;99.90;;;;;;5049734;28;20413;-75
2023/04/22 10:16:41;;;;;;;11.52;10.43;;;16.70;99.90;;;;;;5049168;28;20401;-74
2023/04/22 10:19:10;;;;;;;12.55;11.25;;;16.90;99.90;;;;;;5051824;28;20434;-74
2023/04/22 10:21:39;;;;;;;11.85;10.65;;;16.90;99.90;;;;;;5047944;28;20416;-74
2023/04/22 10:24:05;;;;;;;12.60;11.50;;;17.30;99.90;;;;;;5048052;28;20422;-74
2023/04/22 10:26:41;;;;;;;12.40;11.20;;;17.40;99.90;;;;;;5048651;28;20464;-74
2023/04/22 10:29:15;;;;;;;11.15;9.95;;;17.50;99.90;;;;;;5050230;28;20425;-73
2023/04/22 10:31:50;;;;;;;11.60;10.48;;;17.60;99.90;;;;;;5031761;28;21060;-74
2023/04/22 10:34:17;;;;;;;12.18;10.85;;;17.30;99.90;;;;;;5051315;28;20429;-73
2023/04/22 10:36:58;;;;;;;10.98;9.98;;;17.80;99.90;;;;;;5054876;28;20403;-77
2023/04/22 10:39:25;;;;;;;11.52;10.43;;;17.60;99.90;;;;;;5060278;28;20427;-75
2023/04/22 10:41:56;;;;;;;10.95;9.90;;;17.50;99.90;;;;;;5066985;28;20757;-75
2023/04/22 10:44:26;;;;;;;10.05;9.15;;;17.50;99.90;;;;;;5048957;28;20444;-76
2023/04/22 10:46:51;;;;;;;10.70;9.63;;;17.80;99.90;;;;;;5055869;28;20400;-75
2023/04/22 10:49:23;;;;;;;10.65;9.13;;;18.10;99.90;;;;;;5065888;28;20451;-76
2023/04/22 10:51:57;;;;;;;10.07;9.07;;;18.60;99.90;;;;;;5044819;28;20507;-76
2023/04/22 10:54:30;;;;;;;9.57;8.60;;;18.40;99.90;;;;;;5057290;28;20457;-76
2023/04/22 10:57:10;;;;;;;8.32;7.53;;;18.50;99.90;;;;;;5069319;28;20461;-75
2023/04/22 10:59:48;;;;;;;10.52;8.50;;;18.70;99.90;;;;;;5059795;28;20428;-76
2023/04/22 11:02:15;;;;;;;8.10;7.30;;;18.50;99.90;;;;;;5047841;28;20424;-76
2023/04/22 11:04:41;;;;;;;9.10;8.30;;;18.70;99.90;;;;;;5046384;28;20446;-77
2023/04/22 11:07:21;;;;;;;8.70;7.82;;;19.00;99.90;;;;;;5050525;28;20727;-76
2023/04/22 11:09:51;;;;;;;9.20;8.35;;;18.90;99.90;;;;;;5048712;28;20429;-75
2023/04/22 11:12:38;;;;;;;10.18;9.18;;;19.20;99.90;;;;;;5049454;28;20793;-76
2023/04/22 11:15:22;;;;;;;8.93;8.13;;;19.10;99.90;;;;;;5050178;28;20429;-76
2023/04/22 11:17:53;;;;;;;9.30;8.40;;;18.90;99.90;;;;;;5046205;28;20778;-74
2023/04/22 11:20:19;;;;;;;9.52;8.57;;;18.90;99.90;;;;;;5045878;28;20417;-76
2023/04/22 11:22:49;;;;;;;9.60;8.70;;;18.80;99.90;;;;;;5047575;28;20459;-76
2023/04/22 11:25:15;;;;;;;10.20;9.20;;;18.70;99.90;;;;;;5046958;28;20489;-75
2023/04/22 11:27:44;;;;;;;11.83;9.40;;;18.70;99.90;;;;;;5068627;28;20979;-76
2023/04/22 11:30:13;;;;;;;12.18;9.48;;;18.90;99.90;;;;;;5046634;28;20429;-75
2023/04/22 11:32:41;;;;;;;9.13;8.32;;;18.90;99.90;;;;;;5047250;28;20413;-76
2023/04/22 11:35:19;;;;;;;8.77;8.02;;;19.30;99.90;;;;;;5048521;28;20426;-76
2023/04/22 11:37:46;;;;;;;9.52;8.63;;;19.60;99.90;;;;;;5045111;28;20441;-77
2023/04/22 11:40:20;;;;;;;9.77;8.98;;;19.60;99.90;;;;;;5056747;28;20500;-75
2023/04/22 11:42:47;;;;;;;8.95;8.18;;;19.40;99.90;;;;;;5057235;28;20463;-76
2023/04/22 11:45:15;;;;;;;8.77;7.75;;;19.30;99.90;;;;;;5052726;28;20427;-75
2023/04/22 11:47:41;;;;;;;8.68;7.72;;;19.30;99.90;;;;;;5047254;28;20498;-77
2023/04/22 11:50:10;;;;;;;8.80;8.00;;;19.00;99.90;;;;;;5046048;28;20429;-79
2023/04/22 11:52:57;;;;;;;9.27;8.40;;;19.00;99.90;;;;;;5045472;28;20433;-79
2023/04/22 11:55:29;;;;;;;9.77;8.82;;;19.30;99.90;;;;;;5048513;28;20441;-79
2023/04/22 11:58:09;;;;;;;8.52;7.60;;;19.20;99.90;;;;;;5045234;28;20449;-78
2023/04/22 12:00:49;;;;;;;9.27;8.23;;;19.00;99.90;;;;;;5042705;28;21012;-83
2023/04/22 12:03:24;;;;;;;9.20;8.35;;;19.10;99.90;;;;;;5040926;28;20428;-81
2023/04/22 12:05:56;;;;;;;8.90;8.13;;;18.80;99.90;;;;;;5047200;28;20409;-80
2023/04/22 12:08:33;;;;;;;9.30;8.50;;;19.10;99.90;;;;;;5047380;28;20405;-83
2023/04/22 12:11:09;;;;;;;9.02;8.13;;;19.10;99.90;;;;;;5047683;28;20902;-81
2023/04/22 12:13:39;;;;;;;9.13;8.32;;;19.20;99.90;;;;;;5046461;28;20432;-83
2023/04/22 12:16:11;;;;;;;9.82;8.90;;;19.30;99.90;;;;;;5043456;28;20494;-80
2023/04/22 12:18:39;;;;;;;10.57;9.50;;;19.10;99.90;;;;;;5037074;28;20520;-75
2023/04/22 12:21:12;;;;;;;9.95;8.95;;;19.50;99.90;;;;;;5046996;28;20766;-82
2023/04/22 12:24:04;;;;;;;9.57;8.60;;;19.60;99.90;;;;;;5045853;28;20479;-81
2023/04/22 12:26:30;;;;;;;9.50;8.57;;;19.90;99.90;;;;;;5051338;28;20438;-81
2023/04/22 12:28:58;;;;;;;9.63;8.82;;;20.30;99.90;;;;;;5042879;28;20426;-75
2023/04/22 12:31:24;;;;;;;9.57;8.57;;;20.30;99.90;;;;;;5050341;28;20423;-83
2023/04/22 12:33:50;;;;;;;9.60;8.70;;;20.40;99.90;;;;;;5056778;28;20799;-81
2023/04/22 12:36:19;;;;;;;9.40;8.60;;;19.70;99.90;;;;;;5046418;28;20423;-82
2023/04/22 12:38:45;;;;;;;9.95;8.95;;;19.60;99.90;;;;;;5055037;28;20468;-83